Time;durP1;ratioP1;P1;durP2;ratioP2;P2;SDS_P1;SDS_P2;PMS_P1;PMS_P2;Temp;Humidity;BMP_temperature;BMP_pressure;BME280_temperature;BME280_humidity;BME280_pressure;Samples;Min_cycle;Max_cycle;Signal;HPM_P1;HPM_P2
2023/04/04 00:01:11;;;;;;;8.82;5.50;;;8.50;99.90;;;8.71;53.41;102882.34;4995358;28;20043;-70
2023/04/04 00:03:40;;;;;;;11.52;6.45;;;8.50;99.90;;;8.68;53.28;102885.75;4994750;28;20085;-70
2023/04/04 00:06:08;;;;;;;8.93;6.47;;;8.50;99.90;;;8.67;53.48;102883.06;4994997;28;20038;-70
2023/04/04 00:08:37;;;;;;;8.63;5.95;;;8.50;99.90;;;8.64;53.54;102885.59;4994704;28;20412;-70
2023/04/04 00:11:07;;;;;;;9.13;6.55;;;8.40;99.90;;;8.60;53.10;102884.59;4994960;28;20042;-70
2023/04/04 00:13:35;;;;;;;8.73;6.30;;;8.40;99.90;;;8.58;53.56;102880.09;4994319;28;20100;-69
2023/04/04 00:16:04;;;;;;;8.88;6.78;;;8.40;99.90;;;8.41;53.24;102875.94;4994426;28;20054;-69
2023/04/04 00:18:33;;;;;;;10.52;6.45;;;8.30;99.90;;;8.29;53.14;102875.47;4994754;28;20042;-69
2023/04/04 00:21:01;;;;;;;9.85;6.93;;;8.20;99.90;;;8.33;53.88;102895.84;4994411;28;20038;-69
2023/04/04 00:23:30;;;;;;;9.20;7.03;;;8.20;99.90;;;8.36;53.83;102875.81;4994365;28;20065;-70
2023/04/04 00:25:58;;;;;;;7.97;6.22;;;8.20;99.90;;;8.34;53.51;102871.31;4994328;28;20053;-70
2023/04/04 00:28:27;;;;;;;10.00;7.55;;;8.20;99.90;;;8.27;53.62;102863.97;4993224;28;20516;-69
2023/04/04 00:30:56;;;;;;;10.90;6.73;;;8.10;99.90;;;8.29;53.64;102868.47;4994253;28;20047;-70
2023/04/04 00:33:24;;;;;;;10.45;6.63;;;8.10;99.90;;;8.26;53.73;102864.84;4993179;28;20294;-70
2023/04/04 00:35:53;;;;;;;9.43;6.82;;;8.10;99.90;;;8.23;54.09;102869.13;4994447;28;20125;-70
2023/04/04 00:38:22;;;;;;;12.80;7.45;;;8.10;99.90;;;8.16;53.73;102864.47;4993060;28;20542;-69
2023/04/04 00:40:51;;;;;;;10.18;7.07;;;8.00;99.90;;;8.14;54.06;102863.53;4993039;28;20050;-70
2023/04/04 00:43:19;;;;;;;11.73;7.20;;;8.00;99.90;;;8.16;54.36;102856.56;4994240;28;20479;-70
2023/04/04 00:45:50;;;;;;;12.57;7.72;;;8.00;99.90;;;8.14;54.68;102860.88;4994283;28;20038;-69
2023/04/04 00:48:20;;;;;;;11.20;7.28;;;8.00;99.90;;;8.16;54.56;102864.47;4994248;28;20416;-69
2023/04/04 00:50:48;;;;;;;12.60;7.50;;;8.00;99.90;;;8.12;54.57;102869.56;4994082;28;20042;-69
2023/04/04 00:53:17;;;;;;;10.32;6.70;;;7.90;99.90;;;8.09;54.86;102872.97;4994200;28;20070;-69
2023/04/04 00:55:45;;;;;;;11.55;7.57;;;7.90;99.90;;;8.10;55.01;102869.50;4992787;28;20069;-70
2023/04/04 00:58:14;;;;;;;10.07;7.28;;;7.90;99.90;;;8.06;54.89;102866.69;4993969;28;20388;-70
2023/04/04 01:00:42;;;;;;;9.40;7.43;;;7.90;99.90;;;7.97;55.33;102862.00;4993346;28;20046;-70
2023/04/04 01:03:13;;;;;;;11.57;7.03;;;7.80;99.90;;;7.94;55.26;102856.59;4992696;28;20093;-70
2023/04/04 01:05:41;;;;;;;10.02;7.40;;;7.80;99.90;;;7.93;55.41;102867.97;4993906;28;20054;-70
2023/04/04 01:08:10;;;;;;;11.95;7.50;;;7.80;99.90;;;7.91;55.40;102858.22;4992889;28;20460;-70
2023/04/04 01:10:39;;;;;;;9.50;7.10;;;7.70;99.90;;;7.91;55.51;102861.75;4994026;28;20050;-70
2023/04/04 01:13:09;;;;;;;11.68;7.80;;;7.70;99.90;;;7.89;55.55;102858.16;4992535;28;20089;-70
2023/04/04 01:15:38;;;;;;;10.65;7.20;;;7.70;99.90;;;7.86;55.88;102844.84;4993358;28;20415;-69
2023/04/04 01:18:08;;;;;;;12.50;7.40;;;7.70;99.90;;;7.83;56.17;102849.13;4993940;28;20082;-70
2023/04/04 01:20:51;;;;;;;8.73;7.03;;;7.60;99.90;;;7.85;56.10;102845.72;4992538;28;20595;-69
2023/04/04 01:23:24;;;;;;;10.32;7.78;;;7.60;99.90;;;7.67;56.19;102825.66;4992417;28;20050;-70
2023/04/04 01:26:02;;;;;;;16.48;8.10;;;7.60;99.90;;;7.75;56.50;102838.28;4992389;28;20060;-70
2023/04/04 01:28:32;;;;;;;14.60;8.67;;;7.60;99.90;;;7.78;56.90;102842.78;4992462;28;20050;-70
2023/04/04 01:31:06;;;;;;;12.05;7.95;;;7.60;99.90;;;7.71;56.99;102851.28;4992180;28;20046;-70
2023/04/04 01:33:41;;;;;;;11.23;7.72;;;7.60;99.90;;;7.68;57.44;102846.81;4992407;28;20058;-69
2023/04/04 01:36:18;;;;;;;13.90;7.70;;;7.50;99.90;;;7.71;57.15;102846.91;4992338;28;20057;-69
2023/04/04 01:38:55;;;;;;;13.35;7.63;;;7.50;99.90;;;7.34;57.58;102791.00;4993341;28;20047;-70
2023/04/04 01:41:26;;;;;;;12.23;7.72;;;7.50;99.90;;;7.68;57.71;102873.16;4993544;28;20053;-70
2023/04/04 01:43:57;;;;;;;9.45;7.72;;;7.50;99.90;;;7.65;57.88;102840.50;4992184;28;20073;-70
2023/04/04 01:46:27;;;;;;;10.30;8.10;;;7.50;99.90;;;7.62;58.04;102841.28;4991825;28;20050;-70
2023/04/04 01:48:55;;;;;;;12.00;7.97;;;7.40;99.90;;;7.61;57.85;102868.44;4992185;28;20047;-70
2023/04/04 01:51:30;;;;;;;9.15;7.30;;;7.40;99.90;;;7.58;58.01;102839.38;4992096;28;20555;-70
2023/04/04 01:53:59;;;;;;;10.85;8.02;;;7.40;99.90;;;7.56;58.41;102845.41;4993244;28;20112;-70
2023/04/04 01:56:29;;;;;;;10.45;8.00;;;7.40;99.90;;;7.51;58.45;102839.94;4992050;28;20141;-70
2023/04/04 01:58:58;;;;;;;11.02;8.43;;;7.40;99.90;;;7.52;58.62;102847.03;4992046;28;20403;-69
2023/04/04 02:01:26;;;;;;;14.00;7.57;;;7.40;99.90;;;7.42;58.73;102842.22;4992029;28;20510;-69
2023/04/04 02:03:55;;;;;;;11.48;7.55;;;7.30;99.90;;;7.40;59.18;102843.91;4993315;28;20046;-70
2023/04/04 02:06:23;;;;;;;10.43;7.75;;;7.30;99.90;;;7.38;59.16;102840.31;4993014;28;20511;-69
2023/04/04 02:08:52;;;;;;;13.07;7.40;;;7.20;99.90;;;7.33;59.30;102841.88;4991982;28;20046;-69
2023/04/04 02:11:21;;;;;;;11.50;7.43;;;7.20;99.90;;;7.32;59.51;102842.69;4993628;28;20152;-70
2023/04/04 02:13:52;;;;;;;9.05;7.40;;;7.20;99.90;;;6.74;59.88;102741.19;4995777;28;20077;-69
2023/04/04 02:16:20;;;;;;;13.02;7.90;;;7.20;99.90;;;7.23;59.90;102842.31;4995625;28;20428;-69
2023/04/04 02:18:49;;;;;;;11.25;7.72;;;7.10;99.90;;;7.22;60.06;102843.16;4995604;28;20062;-70
2023/04/04 02:21:17;;;;;;;11.75;8.32;;;7.10;99.90;;;7.07;59.89;102842.53;4995672;28;20054;-70
2023/04/04 02:23:47;;;;;;;11.02;7.80;;;7.00;99.90;;;7.08;60.19;102850.47;4995889;28;20066;-70
2023/04/04 02:26:15;;;;;;;10.82;8.43;;;7.00;99.90;;;7.09;60.38;102848.75;4996791;28;20046;-69
2023/04/04 02:28:44;;;;;;;10.13;7.72;;;6.90;99.90;;;7.01;60.33;102844.91;4995566;28;20074;-70
2023/04/04 02:31:13;;;;;;;11.85;8.10;;;6.90;99.90;;;7.04;60.28;102852.94;4996706;28;20049;-70
2023/04/04 02:33:42;;;;;;;10.60;7.93;;;6.90;99.90;;;7.08;60.36;102853.09;4997022;28;20057;-70
2023/04/04 02:36:11;;;;;;;10.50;8.00;;;6.90;99.90;;;7.07;60.66;102855.69;4995418;28;20050;-69
2023/04/04 02:38:40;;;;;;;12.87;7.60;;;6.90;99.90;;;7.05;60.39;102857.34;4995373;28;20055;-70
2023/04/04 02:41:09;;;;;;;10.23;7.65;;;6.90;99.90;;;6.93;60.66;102841.06;4995243;28;20300;-69
2023/04/04 02:43:37;;;;;;;10.38;8.40;;;6.90;99.90;;;6.92;60.57;102831.38;4996580;28;20053;-69
2023/04/04 02:46:08;;;;;;;12.73;8.35;;;6.80;99.90;;;6.96;60.38;102833.28;4995280;28;20046;-70
2023/04/04 02:48:51;;;;;;;12.70;7.72;;;6.80;99.90;;;6.82;60.60;102823.94;4995441;28;20050;-69
2023/04/04 02:51:20;;;;;;;8.90;7.63;;;6.70;99.90;;;6.84;60.98;102827.50;4995082;28;20510;-69
2023/04/04 02:53:48;;;;;;;11.55;9.05;;;6.70;99.90;;;6.81;61.37;102822.16;4995314;28;20054;-70
2023/04/04 02:56:25;;;;;;;11.25;8.75;;;6.70;99.90;;;6.86;60.99;102823.22;4995220;28;20046;-70
2023/04/04 02:58:54;;;;;;;9.02;8.23;;;6.70;99.90;;;6.86;61.22;102825.84;4994950;28;20101;-69
2023/04/04 03:01:22;;;;;;;13.02;8.43;;;6.70;99.90;;;6.83;61.00;102826.59;4995922;28;20487;-70
2023/04/04 03:03:52;;;;;;;11.20;8.35;;;6.70;99.90;;;6.77;61.25;102814.97;4996160;28;20058;-69
2023/04/04 03:06:22;;;;;;;10.15;8.15;;;6.70;99.90;;;6.80;61.47;102821.22;4994918;28;20515;-70
2023/04/04 03:08:50;;;;;;;11.88;8.82;;;6.70;99.90;;;6.86;61.07;102816.25;4994796;28;20050;-70
2023/04/04 03:11:20;;;;;;;10.23;7.85;;;6.60;99.90;;;6.78;61.02;102812.38;4994668;28;20058;-69
2023/04/04 03:13:51;;;;;;;10.52;7.68;;;6.60;99.90;;;6.73;61.40;102813.94;4994707;28;20054;-69
2023/04/04 03:16:25;;;;;;;12.20;8.40;;;6.60;99.90;;;6.77;61.34;102818.50;4994344;28;20050;-69
2023/04/04 03:18:56;;;;;;;10.27;7.88;;;6.60;99.90;;;6.77;61.67;102815.88;4994853;28;20097;-70
2023/04/04 03:21:24;;;;;;;10.27;8.07;;;6.60;99.90;;;6.75;61.95;102825.41;4994649;28;20177;-70
2023/04/04 03:23:56;;;;;;;13.27;8.55;;;6.60;99.90;;;6.70;61.95;102820.78;4993760;28;20492;-70
2023/04/04 03:26:27;;;;;;;9.98;8.02;;;6.60;99.90;;;6.68;61.80;102812.81;4994406;28;20055;-70
2023/04/04 03:28:55;;;;;;;12.30;8.40;;;6.50;99.90;;;6.71;62.09;102817.31;4994533;28;20100;-70
2023/04/04 03:31:25;;;;;;;10.93;7.60;;;6.50;99.90;;;6.74;61.87;102823.59;4995733;28;20038;-70
2023/04/04 03:33:55;;;;;;;11.05;8.18;;;6.50;99.90;;;6.71;61.80;102830.47;4995388;28;20467;-70
2023/04/04 03:36:23;;;;;;;15.30;9.50;;;6.60;99.90;;;6.75;61.81;102835.03;4994078;28;20058;-70
2023/04/04 03:38:52;;;;;;;12.00;8.63;;;6.60;99.90;;;6.69;61.53;102838.31;4994527;28;20046;-70
2023/04/04 03:41:20;;;;;;;12.70;8.20;;;6.60;99.90;;;6.69;61.31;102842.66;4995443;28;20045;-70
2023/04/04 03:43:49;;;;;;;10.98;8.85;;;6.50;99.90;;;6.67;61.62;102833.81;4994135;28;20133;-70
2023/04/04 03:46:18;;;;;;;12.98;8.68;;;6.50;99.90;;;6.66;61.68;102842.53;4993806;28;20058;-70
2023/04/04 03:48:47;;;;;;;17.88;8.45;;;6.50;99.90;;;6.61;61.73;102833.53;4994075;28;20038;-72
2023/04/04 03:51:23;;;;;;;13.48;8.57;;;6.40;99.90;;;6.50;62.12;102824.28;4993995;28;20054;-71
2023/04/04 03:53:52;;;;;;;11.48;8.52;;;6.40;99.90;;;6.52;62.40;102828.78;4995184;28;20039;-71
2023/04/04 03:56:20;;;;;;;12.10;8.25;;;6.40;99.90;;;6.56;62.27;102819.31;4995358;28;20455;-70
2023/04/04 03:58:48;;;;;;;9.57;7.90;;;6.40;99.90;;;6.55;62.28;102822.75;4994276;28;20085;-70
2023/04/04 04:01:20;;;;;;;12.98;8.57;;;6.40;99.90;;;6.58;62.24;102828.16;4993927;28;20081;-70
2023/04/04 04:03:48;;;;;;;12.93;8.50;;;6.40;99.90;;;6.58;62.27;102817.63;4995098;28;20074;-70
2023/04/04 04:06:19;;;;;;;14.73;8.52;;;6.40;99.90;;;6.50;62.46;102825.19;4995029;28;20492;-70
2023/04/04 04:08:48;;;;;;;11.52;8.63;;;6.40;99.90;;;6.58;62.59;102833.41;4993835;28;20050;-70
2023/04/04 04:11:17;;;;;;;10.43;8.32;;;6.40;99.90;;;6.53;62.41;102821.78;4993811;28;20049;-71
2023/04/04 04:13:45;;;;;;;13.00;9.50;;;6.40;99.90;;;6.54;62.12;102826.22;4994920;28;20046;-70
2023/04/04 04:16:14;;;;;;;11.88;8.32;;;6.40;99.90;;;6.52;62.23;102826.16;4993178;28;20165;-70
2023/04/04 04:18:42;;;;;;;12.10;8.55;;;6.40;99.90;;;6.54;62.58;102832.38;4993039;28;20042;-71
2023/04/04 04:21:15;;;;;;;11.25;8.27;;;6.30;99.90;;;6.57;62.54;102828.97;4993397;28;20085;-70
2023/04/04 04:23:45;;;;;;;11.82;8.57;;;6.40;99.90;;;6.43;62.56;102819.63;4994564;28;20054;-70
2023/04/04 04:26:13;;;;;;;12.53;8.73;;;6.30;99.90;;;6.46;62.98;102832.88;4994671;28;20043;-71
2023/04/04 04:28:42;;;;;;;11.80;9.05;;;6.30;99.90;;;6.42;62.93;102812.53;4994589;28;20053;-70
2023/04/04 04:31:15;;;;;;;14.35;9.07;;;6.30;99.90;;;6.47;62.92;102829.41;4993159;28;20048;-71
2023/04/04 04:33:48;;;;;;;12.55;9.05;;;6.30;99.90;;;6.49;62.85;102827.75;4993099;28;20397;-70
2023/04/04 04:36:19;;;;;;;11.10;9.93;;;6.30;99.90;;;6.45;63.03;102820.53;4993149;28;20055;-70
2023/04/04 04:38:56;;;;;;;11.45;8.88;;;6.30;99.90;;;6.43;62.94;102828.38;4993137;28;20073;-70
2023/04/04 04:41:28;;;;;;;11.80;9.10;;;6.30;99.90;;;6.31;63.13;102806.81;4993148;28;20109;-70
2023/04/04 04:43:57;;;;;;;14.45;9.52;;;6.30;99.90;;;6.44;62.79;102824.94;4992939;28;20054;-70
2023/04/04 04:46:27;;;;;;;12.38;8.73;;;6.30;99.90;;;6.45;62.59;102824.09;4993089;28;20136;-69
2023/04/04 04:48:55;;;;;;;13.23;9.27;;;6.30;99.90;;;6.40;62.51;102812.47;4993001;28;20051;-69
2023/04/04 04:51:28;;;;;;;12.63;8.98;;;6.30;99.90;;;6.43;62.39;102827.50;4992982;28;20042;-70
2023/04/04 04:54:00;;;;;;;12.40;9.60;;;6.20;99.90;;;6.49;62.14;102828.66;4992830;28;20427;-70
2023/04/04 04:56:29;;;;;;;13.50;9.40;;;6.30;99.90;;;6.43;62.23;102832.75;4994152;28;20089;-69
2023/04/04 04:59:07;;;;;;;14.27;9.57;;;6.20;99.90;;;6.35;62.33;102827.13;4992552;28;20046;-69
2023/04/04 05:01:38;;;;;;;13.18;9.35;;;6.20;99.90;;;6.37;62.65;102828.09;4992747;28;20492;-70
2023/04/04 05:04:06;;;;;;;12.75;9.55;;;6.20;99.90;;;6.32;62.41;102827.00;4992662;28;20396;-69
2023/04/04 05:06:53;;;;;;;14.07;9.88;;;6.20;99.90;;;6.32;62.55;102827.00;4992634;28;20046;-70
2023/04/04 05:09:23;;;;;;;13.15;9.63;;;6.10;99.90;;;6.24;62.52;102826.69;4992585;28;20046;-70
2023/04/04 05:11:52;;;;;;;13.70;9.85;;;6.00;99.90;;;6.21;63.04;102830.91;4993804;28;20050;-69
2023/04/04 05:14:25;;;;;;;13.20;9.55;;;6.00;99.90;;;6.32;63.41;102840.16;4992433;28;20058;-70
2023/04/04 05:16:57;;;;;;;10.70;9.23;;;6.10;99.90;;;6.17;63.26;102843.00;4992203;28;20054;-69
2023/04/04 05:19:29;;;;;;;12.90;9.90;;;6.00;99.90;;;6.15;63.67;102844.66;4992461;28;20109;-69
2023/04/04 05:21:59;;;;;;;13.18;9.70;;;6.00;99.90;;;6.21;63.90;102844.91;4992306;28;20054;-69
2023/04/04 05:24:37;;;;;;;12.35;10.13;;;6.00;99.90;;;6.23;64.12;102845.00;4992676;28;20049;-70
2023/04/04 05:27:06;;;;;;;14.18;9.68;;;6.00;99.90;;;6.23;63.74;102839.75;4992672;28;20133;-76
2023/04/04 05:29:41;;;;;;;12.32;9.95;;;6.00;99.90;;;6.43;63.87;102848.53;4992275;28;20077;-68
2023/04/04 05:32:10;;;;;;;13.52;9.85;;;6.20;99.90;;;6.45;63.66;102846.84;4992294;28;20050;-69
2023/04/04 05:34:41;;;;;;;12.40;9.82;;;6.20;99.90;;;6.44;63.50;102848.59;4992223;28;20046;-70
2023/04/04 05:37:13;;;;;;;16.45;10.18;;;6.20;99.90;;;6.47;63.21;102855.69;4992325;28;20447;-67
2023/04/04 05:39:48;;;;;;;18.23;10.68;;;6.20;99.90;;;6.64;62.96;102844.19;4992202;28;20054;-68
2023/04/04 05:42:17;;;;;;;17.05;10.27;;;6.40;99.90;;;6.76;62.76;102848.25;4992406;28;20125;-67
2023/04/04 05:44:50;;;;;;;18.25;9.82;;;6.60;99.90;;;6.87;62.76;102851.34;4992422;28;20478;-68
2023/04/04 05:47:20;;;;;;;15.93;10.02;;;6.70;99.90;;;6.90;62.38;102840.94;4998247;28;20527;-69
2023/04/04 05:49:49;;;;;;;;;;;6.70;99.90;;;7.02;62.10;102859.88;4999299;28;20530;-69
2023/04/04 05:52:19;;;;;;;13.57;10.35;;;6.90;99.90;;;7.19;62.20;102861.47;4998517;28;19922;-69
2023/04/04 05:54:50;;;;;;;14.27;10.00;;;7.00;99.90;;;7.32;61.81;102855.84;4998366;28;20138;-69
2023/04/04 05:57:25;;;;;;;11.85;9.15;;;7.10;99.90;;;7.59;61.26;102866.63;4998510;28;20152;-69
2023/04/04 05:59:57;;;;;;;12.32;9.43;;;7.40;99.90;;;7.84;60.49;102866.75;4998552;28;20246;-69
2023/04/04 06:02:26;;;;;;;13.70;9.40;;;7.60;99.90;;;8.21;59.89;102868.16;4998420;28;20052;-69
2023/04/04 06:04:59;;;;;;;12.80;9.10;;;7.90;99.90;;;8.50;58.69;102861.34;4998269;28;20085;-68
2023/04/04 06:07:32;;;;;;;15.60;9.63;;;8.30;99.90;;;8.68;57.81;102866.38;4997999;28;20504;-69
2023/04/04 06:10:02;;;;;;;14.05;9.30;;;8.40;99.90;;;8.98;57.41;102860.41;4998131;28;20075;-69
2023/04/04 06:12:32;;;;;;;14.13;9.18;;;8.70;99.90;;;9.18;55.96;102861.09;4998615;28;20054;-68
2023/04/04 06:15:03;;;;;;;11.07;8.48;;;8.90;99.90;;;9.44;55.46;102870.78;4999194;28;20077;-69
2023/04/04 06:17:32;;;;;;;12.85;8.95;;;9.10;99.90;;;9.42;54.70;102864.53;4998324;28;20142;-70
2023/04/04 06:20:00;;;;;;;10.40;8.73;;;9.20;99.90;;;9.47;53.68;102855.00;4998457;28;20054;-70
2023/04/04 06:22:29;;;;;;;13.20;8.93;;;9.20;99.90;;;9.10;55.41;102854.66;4999424;28;20046;-70
2023/04/04 06:24:57;;;;;;;14.10;8.98;;;9.00;99.90;;;9.57;54.75;102856.19;4998508;28;20050;-70
2023/04/04 06:27:28;;;;;;;13.23;9.48;;;9.30;99.90;;;9.93;53.83;102862.59;4997971;28;20129;-69
2023/04/04 06:29:59;;;;;;;11.55;8.43;;;9.60;99.90;;;10.24;53.63;102864.47;4999531;28;20054;-69
2023/04/04 06:32:27;;;;;;;13.35;8.75;;;9.90;99.90;;;10.47;52.48;102880.13;4997939;28;20073;-70
2023/04/04 06:34:56;;;;;;;12.57;8.30;;;10.20;99.90;;;10.18;51.83;102870.44;4999263;28;20053;-70
2023/04/04 06:37:37;;;;;;;9.00;8.05;;;10.10;99.90;;;10.50;51.11;102869.63;4998541;28;20077;-71
2023/04/04 06:40:14;;;;;;;15.77;8.10;;;10.30;99.90;;;10.08;51.69;102867.47;4998308;28;20061;-71
2023/04/04 06:42:50;;;;;;;17.20;8.63;;;9.90;99.90;;;9.95;51.06;102859.16;4998151;28;20060;-71
2023/04/04 06:45:22;;;;;;;12.48;8.23;;;9.80;99.90;;;9.62;52.14;102862.53;4999758;28;20049;-71
2023/04/04 06:47:52;;;;;;;13.23;8.25;;;9.50;99.90;;;8.52;53.35;102859.66;4998070;28;20050;-71
2023/04/04 06:50:22;;;;;;;11.65;8.73;;;8.60;99.90;;;7.41;55.53;102856.25;4998116;28;20074;-71
2023/04/04 06:52:51;;;;;;;14.57;8.70;;;7.50;99.90;;;8.01;55.64;102861.25;4998168;28;20054;-71
2023/04/04 06:55:20;;;;;;;13.10;8.63;;;7.60;99.90;;;7.99;56.45;102856.78;4999301;28;20775;-70
2023/04/04 06:57:50;;;;;;;11.38;8.27;;;7.60;99.90;;;7.55;56.36;102760.25;4994735;28;20097;-69
2023/04/04 07:00:20;;;;;;;12.18;8.63;;;7.70;99.90;;;8.57;55.82;102866.03;4996008;28;20038;-68
2023/04/04 07:02:49;;;;;;;14.97;8.37;;;8.20;99.90;;;8.35;55.45;102863.44;4996414;28;20133;-69
2023/04/04 07:05:17;;;;;;;12.00;8.32;;;8.10;99.90;;;8.59;56.78;102866.06;4994803;28;20403;-69
2023/04/04 07:07:46;;;;;;;10.05;8.05;;;8.20;99.90;;;8.70;54.92;102873.53;4996121;28;20105;-70
2023/04/04 07:10:15;;;;;;;13.95;8.13;;;8.50;99.90;;;8.86;54.30;102875.84;4996292;28;20042;-70
2023/04/04 07:12:43;;;;;;;13.10;8.50;;;8.50;99.90;;;9.40;54.11;102879.44;4996280;28;20042;-70
2023/04/04 07:15:14;;;;;;;10.25;8.48;;;9.00;99.90;;;9.54;51.44;102878.13;4995561;28;20074;-70
2023/04/04 07:17:43;;;;;;;11.77;8.40;;;9.40;99.90;;;9.00;54.37;102876.34;4995985;28;20058;-72
2023/04/04 07:20:12;;;;;;;15.00;9.05;;;8.70;99.90;;;9.56;53.63;102880.84;4995662;28;20076;-71
2023/04/04 07:22:41;;;;;;;13.70;8.98;;;9.20;99.90;;;9.40;52.68;102876.81;4996142;28;20101;-70
2023/04/04 07:25:11;;;;;;;12.05;8.35;;;9.30;99.90;;;9.82;52.25;102882.53;4995391;28;20562;-69
2023/04/04 07:27:40;;;;;;;12.30;8.48;;;9.50;99.90;;;10.34;51.79;102879.72;4995029;28;20123;-69
2023/04/04 07:30:10;;;;;;;16.52;8.15;;;10.00;99.90;;;10.57;51.27;102881.25;4995148;28;20043;-68
2023/04/04 07:32:40;;;;;;;12.25;8.55;;;10.20;99.90;;;10.70;50.15;102894.00;4995524;28;20389;-70
2023/04/04 07:35:09;;;;;;;13.18;8.45;;;10.40;99.90;;;10.28;51.20;102884.88;4995482;28;20141;-70
2023/04/04 07:37:38;;;;;;;13.35;8.65;;;10.10;99.90;;;9.84;50.17;102884.38;4995210;28;20058;-67
2023/04/04 07:40:08;;;;;;;13.05;8.65;;;9.80;99.90;;;10.21;51.33;102885.50;4995329;28;20049;-69
2023/04/04 07:42:36;;;;;;;12.95;8.95;;;9.90;99.90;;;10.72;51.22;102881.72;4995335;28;20492;-70
2023/04/04 07:45:06;;;;;;;10.40;8.27;;;10.30;99.90;;;10.23;50.54;102874.16;4995148;28;20078;-70
2023/04/04 07:47:34;;;;;;;10.73;7.95;;;10.10;99.90;;;10.94;50.38;102891.13;4995121;28;20058;-69
2023/04/04 07:50:06;;;;;;;13.07;8.20;;;10.50;99.90;;;10.90;48.66;102887.47;4993947;28;20050;-69
2023/04/04 07:52:35;;;;;;;13.30;8.57;;;10.70;99.90;;;11.14;49.88;102888.13;4995234;28;20057;-68
2023/04/04 07:55:06;;;;;;;12.55;7.95;;;10.80;99.90;;;11.68;48.79;102883.31;4994014;28;20046;-68
2023/04/04 07:57:37;;;;;;;13.57;7.32;;;11.40;99.90;;;11.64;45.92;102886.72;4995234;28;20600;-68
2023/04/04 08:00:08;;;;;;;11.77;8.10;;;11.40;99.90;;;11.29;46.93;102872.63;4994858;28;20073;-68
2023/04/04 08:02:40;;;;;;;12.88;8.45;;;11.20;99.90;;;11.54;47.90;102877.66;4994832;28;20058;-68
2023/04/04 08:05:11;;;;;;;12.98;8.48;;;11.30;99.90;;;11.82;46.26;102878.34;4995040;28;20125;-68
2023/04/04 08:07:39;;;;;;;14.57;7.40;;;11.50;99.90;;;11.81;46.60;102872.13;4993786;28;20116;-68
2023/04/04 08:10:10;;;;;;;8.80;7.15;;;11.60;99.90;;;11.49;44.44;102876.66;4994365;28;20558;-69
2023/04/04 08:12:39;;;;;;;11.93;7.68;;;11.40;99.90;;;11.25;45.60;102869.84;4994672;28;20038;-69
2023/04/04 08:15:08;;;;;;;11.80;7.40;;;11.00;99.90;;;11.25;45.07;102869.84;4995064;28;20388;-69
2023/04/04 08:17:37;;;;;;;13.68;8.32;;;11.00;99.90;;;11.43;45.92;102868.56;4994617;28;20457;-69
2023/04/04 08:20:07;;;;;;;9.40;6.72;;;11.10;99.90;;;11.85;45.79;102897.84;4994393;28;20393;-69
2023/04/04 08:22:37;;;;;;;13.40;6.72;;;11.40;99.90;;;11.51;42.57;102868.75;4994448;28;20459;-69
2023/04/04 08:25:06;;;;;;;8.93;6.47;;;11.40;99.90;;;11.59;42.56;102868.03;4993300;28;20054;-69
2023/04/04 08:27:34;;;;;;;10.98;6.70;;;11.30;99.90;;;11.18;42.61;102831.72;4993078;28;20054;-70
2023/04/04 08:30:04;;;;;;;9.68;6.45;;;11.10;99.90;;;11.58;42.66;102866.28;4994244;28;20049;-72
2023/04/04 08:32:32;;;;;;;9.63;5.85;;;11.20;99.90;;;11.41;43.31;102864.06;4995017;28;20074;-71
2023/04/04 08:35:01;;;;;;;9.98;6.10;;;11.10;99.90;;;12.24;43.30;102869.56;4994672;28;20093;-71
2023/04/04 08:37:29;;;;;;;10.13;5.80;;;11.80;99.90;;;12.69;41.03;102881.09;4994276;28;20046;-72
2023/04/04 08:40:03;;;;;;;8.43;6.40;;;12.30;99.90;;;13.12;40.53;102876.59;4994736;28;20415;-71
2023/04/04 08:42:34;;;;;;;10.75;6.53;;;12.80;99.90;;;13.50;40.98;102867.47;4994183;28;20042;-70
2023/04/04 08:45:04;;;;;;;8.48;6.10;;;13.30;99.90;;;13.28;38.10;102871.56;4994345;28;20133;-72
2023/04/04 08:47:35;;;;;;;9.32;6.03;;;13.20;99.90;;;12.96;39.54;102866.53;4994257;28;20058;-70
2023/04/04 08:50:07;;;;;;;10.07;5.57;;;12.90;99.90;;;12.85;37.30;102863.69;4993982;28;20579;-70
2023/04/04 08:52:37;;;;;;;10.00;5.65;;;12.80;99.90;;;12.68;38.61;102878.38;4994006;28;20104;-76
2023/04/04 08:55:08;;;;;;;7.13;6.03;;;12.50;99.90;;;11.84;39.03;102868.66;4994150;28;20093;-66
2023/04/04 08:57:37;;;;;;;8.98;6.15;;;11.60;99.90;;;11.47;39.57;102870.44;4994160;28;20100;-66
2023/04/04 09:00:07;;;;;;;9.30;6.60;;;11.20;99.90;;;10.80;41.31;102859.00;4992960;28;20042;-68
2023/04/04 09:02:47;;;;;;;10.88;6.25;;;10.60;99.90;;;11.02;41.97;102861.34;4993957;28;20109;-69
2023/04/04 09:05:16;;;;;;;6.15;5.43;;;10.70;99.90;;;10.67;41.22;102751.91;4993726;28;20050;-68
2023/04/04 09:07:45;;;;;;;7.53;6.22;;;10.90;99.90;;;11.90;40.82;102863.50;4992648;28;20582;-69
2023/04/04 09:10:15;;;;;;;7.38;5.85;;;11.50;99.90;;;12.36;39.94;102856.53;4993814;28;20054;-68
2023/04/04 09:12:47;;;;;;;9.57;5.97;;;12.00;99.90;;;11.93;39.38;102884.75;4993608;28;20503;-69
2023/04/04 09:15:16;;;;;;;12.88;6.07;;;11.90;99.90;;;12.47;40.27;102859.41;4993486;28;20046;-69
2023/04/04 09:17:44;;;;;;;8.63;6.20;;;12.20;99.90;;;12.78;38.86;102855.56;4993548;28;20057;-69
2023/04/04 09:20:41;;;;;;;7.75;6.13;;;12.60;99.90;;;11.92;38.33;102854.72;4992826;28;20039;-69
2023/04/04 09:23:12;;;;;;;9.35;5.78;;;11.90;99.90;;;11.77;39.23;102859.66;4949481;28;20081;-69
2023/04/04 09:25:48;;;;;;;6.22;5.53;;;11.70;99.90;;;11.93;38.73;102856.50;4992339;28;20499;-69
2023/04/04 09:28:20;;;;;;;8.65;6.22;;;11.70;99.90;;;12.13;40.34;102854.28;4993335;28;20058;-68
2023/04/04 09:30:50;;;;;;;8.63;6.32;;;11.70;99.90;;;12.46;38.49;102854.97;4993271;28;20515;-69
2023/04/04 09:33:20;;;;;;;8.40;6.03;;;12.20;99.90;;;11.52;39.07;102834.31;4993525;28;20492;-69
2023/04/04 09:35:52;;;;;;;11.73;6.40;;;11.60;99.90;;;11.80;39.01;102851.78;4993266;28;20041;-69
2023/04/04 09:38:22;;;;;;;11.90;6.45;;;11.60;99.90;;;11.33;39.53;102833.84;4993262;28;20471;-70
2023/04/04 09:40:52;;;;;;;9.85;6.00;;;11.30;99.90;;;11.97;39.87;102839.78;4993287;28;20039;-71
2023/04/04 09:43:23;;;;;;;8.85;6.20;;;11.60;99.90;;;12.12;38.58;102853.38;4993276;28;20034;-71
2023/04/04 09:45:53;;;;;;;8.55;6.65;;;11.90;99.90;;;12.37;38.95;102868.03;4993543;28;20054;-70
2023/04/04 09:48:33;;;;;;;10.25;6.60;;;12.10;99.90;;;12.42;38.72;102872.59;4993739;28;20070;-70
2023/04/04 09:51:06;;;;;;;9.13;6.20;;;12.20;99.90;;;11.87;39.41;102760.88;4993229;28;20049;-70
2023/04/04 09:53:36;;;;;;;8.15;7.15;;;12.20;99.90;;;11.83;39.02;102866.88;4992240;28;20046;-70
2023/04/04 09:56:07;;;;;;;8.82;6.90;;;11.80;99.90;;;11.58;40.32;102860.97;4993322;28;20074;-70
2023/04/04 09:58:39;;;;;;;8.45;6.63;;;11.40;99.90;;;11.01;39.98;102861.31;4993229;28;20146;-69
2023/04/04 10:01:19;;;;;;;9.70;6.97;;;10.90;99.90;;;10.74;41.15;102846.47;4993135;28;20041;-70
2023/04/04 10:03:53;;;;;;;11.95;6.90;;;10.50;99.90;;;10.86;39.68;102851.19;4993333;28;20097;-69
2023/04/04 10:06:22;;;;;;;11.27;6.93;;;10.70;99.90;;;10.97;40.04;102848.84;4991950;28;20058;-69
2023/04/04 10:08:52;;;;;;;8.77;6.88;;;10.70;99.90;;;11.23;40.42;102845.06;4992971;28;20049;-70
2023/04/04 10:11:32;;;;;;;9.85;6.88;;;11.00;99.90;;;11.87;40.14;102852.81;4993009;28;20100;-70
2023/04/04 10:14:02;;;;;;;10.82;6.80;;;11.60;99.90;;;11.50;40.37;102857.25;4993037;28;20184;-69
2023/04/04 10:16:33;;;;;;;9.40;6.80;;;11.40;99.90;;;11.01;38.72;102811.88;4992924;28;20416;-70
2023/04/04 10:19:02;;;;;;;;;;;11.10;99.90;;;11.12;38.92;102849.22;4993740;28;20056;-70
2023/04/04 10:21:31;;;;;;;11.05;7.00;;;10.90;99.90;;;11.40;41.33;102843.75;4993327;28;19926;-70
2023/04/04 10:24:02;;;;;;;9.45;7.30;;;11.00;99.90;;;12.04;40.19;102835.53;4992655;28;20042;-69
2023/04/04 10:26:31;;;;;;;9.02;6.25;;;11.60;99.90;;;11.37;37.68;102849.88;4993456;28;20452;-68
2023/04/04 10:29:00;;;;;;;11.40;6.78;;;11.30;99.90;;;11.28;38.71;102841.69;4993132;28;20053;-70
2023/04/04 10:31:31;;;;;;;10.63;6.60;;;11.10;99.90;;;11.53;42.04;102828.19;4993220;28;20038;-69